sensor_id;sensor_type;location;lat;lon;timestamp;pressure;altitude;pressure_sealevel;temperature;humidity
70072;BME280;57434;42.794;23.302;2023-02-15T00:00:10;96874.41;;;-1.32;78.66
70072;BME280;57434;42.794;23.302;2023-02-15T00:01:12;96769.84;;;-1.97;78.86
70072;BME280;57434;42.794;23.302;2023-02-15T00:02:14;96880.75;;;-1.21;78.69
70072;BME280;57434;42.794;23.302;2023-02-15T00:03:16;96749.72;;;-2.09;78.40
70072;BME280;57434;42.794;23.302;2023-02-15T00:04:21;96759.22;;;-1.99;78.35
70072;BME280;57434;42.794;23.302;2023-02-15T00:05:23;96773.50;;;-2.34;78.57
70072;BME280;57434;42.794;23.302;2023-02-15T00:06:25;96874.25;;;-1.57;78.82
70072;BME280;57434;42.794;23.302;2023-02-15T00:07:27;96841.84;;;-1.85;78.93
70072;BME280;57434;42.794;23.302;2023-02-15T00:08:29;96916.81;;;-1.44;78.97
70072;BME280;57434;42.794;23.302;2023-02-15T00:09:31;96896.81;;;-1.33;78.92
70072;BME280;57434;42.794;23.302;2023-02-15T00:10:33;96894.44;;;-1.35;79.03
70072;BME280;57434;42.794;23.302;2023-02-15T00:11:35;96901.41;;;-1.52;78.81
70072;BME280;57434;42.794;23.302;2023-02-15T00:12:37;96894.78;;;-1.44;78.76
70072;BME280;57434;42.794;23.302;2023-02-15T00:13:39;96895.16;;;-1.45;78.41
70072;BME280;57434;42.794;23.302;2023-02-15T00:14:40;96893.06;;;-1.66;78.62
70072;BME280;57434;42.794;23.302;2023-02-15T00:15:42;96891.97;;;-1.51;78.43
70072;BME280;57434;42.794;23.302;2023-02-15T00:16:45;96894.22;;;-1.67;78.50
70072;BME280;57434;42.794;23.302;2023-02-15T00:17:47;96782.13;;;-2.36;78.49
70072;BME280;57434;42.794;23.302;2023-02-15T00:18:52;96899.03;;;-1.57;78.81
70072;BME280;57434;42.794;23.302;2023-02-15T00:19:53;96905.31;;;-1.53;78.65
70072;BME280;57434;42.794;23.302;2023-02-15T00:20:55;96902.50;;;-1.67;78.87
70072;BME280;57434;42.794;23.302;2023-02-15T00:21:57;96903.75;;;-1.57;79.00
70072;BME280;57434;42.794;23.302;2023-02-15T00:22:59;96899.41;;;-1.58;78.88
70072;BME280;57434;42.794;23.302;2023-02-15T00:24:03;96903.75;;;-1.57;79.05
70072;BME280;57434;42.794;23.302;2023-02-15T00:25:05;96842.06;;;-2.04;79.44
70072;BME280;57434;42.794;23.302;2023-02-15T00:26:09;96878.41;;;-1.84;79.03
70072;BME280;57434;42.794;23.302;2023-02-15T00:27:12;96902.53;;;-1.63;78.89
70072;BME280;57434;42.794;23.302;2023-02-15T00:28:13;96898.50;;;-1.73;79.18
70072;BME280;57434;42.794;23.302;2023-02-15T00:29:17;96893.78;;;-1.73;79.32
70072;BME280;57434;42.794;23.302;2023-02-15T00:30:19;96896.56;;;-1.69;79.39
70072;BME280;57434;42.794;23.302;2023-02-15T00:31:21;96892.19;;;-1.77;79.01
70072;BME280;57434;42.794;23.302;2023-02-15T00:32:23;96930.81;;;-1.63;79.84
70072;BME280;57434;42.794;23.302;2023-02-15T00:33:25;96902.56;;;-1.56;79.88
70072;BME280;57434;42.794;23.302;2023-02-15T00:34:27;96737.94;;;-2.64;79.44
70072;BME280;57434;42.794;23.302;2023-02-15T00:35:30;96893.88;;;-1.62;79.16
70072;BME280;57434;42.794;23.302;2023-02-15T00:36:32;96869.75;;;-1.79;78.72
70072;BME280;57434;42.794;23.302;2023-02-15T00:37:34;96897.28;;;-1.79;78.61
70072;BME280;57434;42.794;23.302;2023-02-15T00:38:36;96903.69;;;-1.64;78.38
70072;BME280;57434;42.794;23.302;2023-02-15T00:39:38;96886.59;;;-1.91;78.42
70072;BME280;57434;42.794;23.302;2023-02-15T00:40:40;96916.09;;;-1.88;78.63
70072;BME280;57434;42.794;23.302;2023-02-15T00:41:41;96890.38;;;-2.10;78.51
70072;BME280;57434;42.794;23.302;2023-02-15T00:42:43;96900.84;;;-2.23;78.23
70072;BME280;57434;42.794;23.302;2023-02-15T00:43:45;96861.22;;;-2.59;78.35
70072;BME280;57434;42.794;23.302;2023-02-15T00:44:46;96883.16;;;-2.62;78.97
70072;BME280;57434;42.794;23.302;2023-02-15T00:45:48;96872.16;;;-2.62;78.96
70072;BME280;57434;42.794;23.302;2023-02-15T00:46:50;96906.16;;;-2.41;78.89
70072;BME280;57434;42.794;23.302;2023-02-15T00:47:52;96912.84;;;-2.42;78.77
70072;BME280;57434;42.794;23.302;2023-02-15T00:48:54;96897.34;;;-2.57;78.87
70072;BME280;57434;42.794;23.302;2023-02-15T00:49:56;96904.75;;;-2.24;79.09
70072;BME280;57434;42.794;23.302;2023-02-15T00:50:59;96896.44;;;-2.31;78.94
70072;BME280;57434;42.794;23.302;2023-02-15T00:52:01;96717.16;;;-3.43;78.66
70072;BME280;57434;42.794;23.302;2023-02-15T00:53:02;96903.69;;;-2.12;79.09
70072;BME280;57434;42.794;23.302;2023-02-15T00:54:05;96918.28;;;-2.05;78.93
70072;BME280;57434;42.794;23.302;2023-02-15T00:55:07;96917.53;;;-2.02;78.71
70072;BME280;57434;42.794;23.302;2023-02-15T00:56:08;96878.25;;;-2.46;78.46
70072;BME280;57434;42.794;23.302;2023-02-15T00:57:10;96897.41;;;-2.13;78.37
70072;BME280;57434;42.794;23.302;2023-02-15T00:58:13;96888.81;;;-2.48;77.89
70072;BME280;57434;42.794;23.302;2023-02-15T00:59:15;96907.53;;;-2.20;77.86
70072;BME280;57434;42.794;23.302;2023-02-15T01:00:16;96879.00;;;-2.49;78.43
70072;BME280;57434;42.794;23.302;2023-02-15T01:01:19;96730.97;;;-3.35;78.62
70072;BME280;57434;42.794;23.302;2023-02-15T01:02:21;96899.22;;;-2.27;78.87
70072;BME280;57434;42.794;23.302;2023-02-15T01:03:23;96879.53;;;-2.33;78.62
70072;BME280;57434;42.794;23.302;2023-02-15T01:04:25;96761.63;;;-2.93;78.54
70072;BME280;57434;42.794;23.302;2023-02-15T01:05:27;96753.69;;;-3.01;78.40
70072;BME280;57434;42.794;23.302;2023-02-15T01:06:29;96905.81;;;-1.95;78.85
70072;BME280;57434;42.794;23.302;2023-02-15T01:07:31;96835.66;;;-2.63;78.83
70072;BME280;57434;42.794;23.302;2023-02-15T01:08:33;96935.44;;;-2.18;79.38
70072;BME280;57434;42.794;23.302;2023-02-15T01:09:34;96701.69;;;-3.61;79.47
70072;BME280;57434;42.794;23.302;2023-02-15T01:10:36;96897.78;;;-2.14;79.90
70072;BME280;57434;42.794;23.302;2023-02-15T01:11:38;96902.59;;;-2.00;80.00
70072;BME280;57434;42.794;23.302;2023-02-15T01:12:40;96924.78;;;-1.79;81.65
70072;BME280;57434;42.794;23.302;2023-02-15T01:13:42;96910.44;;;-1.55;82.63
70072;BME280;57434;42.794;23.302;2023-02-15T01:14:43;96855.16;;;-1.90;82.30
70072;BME280;57434;42.794;23.302;2023-02-15T01:15:45;96738.69;;;-2.71;82.33
70072;BME280;57434;42.794;23.302;2023-02-15T01:16:47;96897.41;;;-1.65;82.31
70072;BME280;57434;42.794;23.302;2023-02-15T01:17:49;96864.84;;;-2.07;82.56
70072;BME280;57434;42.794;23.302;2023-02-15T01:18:52;96895.75;;;-1.73;82.77
70072;BME280;57434;42.794;23.302;2023-02-15T01:19:53;96726.53;;;-2.69;83.12
70072;BME280;57434;42.794;23.302;2023-02-15T01:20:55;96867.44;;;-1.74;83.20
70072;BME280;57434;42.794;23.302;2023-02-15T01:21:57;96890.31;;;-1.66;83.05
70072;BME280;57434;42.794;23.302;2023-02-15T01:22:59;96878.53;;;-1.63;83.21
70072;BME280;57434;42.794;23.302;2023-02-15T01:24:01;96893.94;;;-1.51;83.73
70072;BME280;57434;42.794;23.302;2023-02-15T01:25:03;96744.78;;;-2.44;83.35
70072;BME280;57434;42.794;23.302;2023-02-15T01:26:05;96881.44;;;-1.38;83.22
70072;BME280;57434;42.794;23.302;2023-02-15T01:27:07;96896.06;;;-1.23;83.26
70072;BME280;57434;42.794;23.302;2023-02-15T01:28:10;96875.63;;;-1.22;83.26
70072;BME280;57434;42.794;23.302;2023-02-15T01:29:12;96875.63;;;-1.22;83.04
70072;BME280;57434;42.794;23.302;2023-02-15T01:30:14;96883.88;;;-1.22;82.91
70072;BME280;57434;42.794;23.302;2023-02-15T01:31:19;96862.97;;;-1.38;82.34
70072;BME280;57434;42.794;23.302;2023-02-15T01:32:21;96895.69;;;-1.22;81.92
70072;BME280;57434;42.794;23.302;2023-02-15T01:33:23;96875.59;;;-1.29;81.87
70072;BME280;57434;42.794;23.302;2023-02-15T01:34:24;96868.84;;;-1.43;81.64
70072;BME280;57434;42.794;23.302;2023-02-15T01:35:27;96870.34;;;-1.52;81.31
70072;BME280;57434;42.794;23.302;2023-02-15T01:36:29;96910.69;;;-1.12;82.41
70072;BME280;57434;42.794;23.302;2023-02-15T01:37:32;96889.56;;;-0.87;83.12
70072;BME280;57434;42.794;23.302;2023-02-15T01:38:34;96865.88;;;-1.09;83.19
70072;BME280;57434;42.794;23.302;2023-02-15T01:39:36;96857.66;;;-0.95;83.13
70072;BME280;57434;42.794;23.302;2023-02-15T01:40:38;96776.00;;;-1.46;82.46
70072;BME280;57434;42.794;23.302;2023-02-15T01:41:40;96814.25;;;-1.23;82.08
70072;BME280;57434;42.794;23.302;2023-02-15T01:42:42;96847.41;;;-0.98;81.84
70072;BME280;57434;42.794;23.302;2023-02-15T01:43:48;96857.28;;;-0.90;81.37
70072;BME280;57434;42.794;23.302;2023-02-15T01:44:59;96869.88;;;-0.89;81.09
70072;BME280;57434;42.794;23.302;2023-02-15T01:46:01;96858.44;;;-1.02;80.95
70072;BME280;57434;42.794;23.302;2023-02-15T01:47:04;96881.63;;;-0.99;80.64
70072;BME280;57434;42.794;23.302;2023-02-15T01:48:22;96877.38;;;-0.86;81.43
70072;BME280;57434;42.794;23.302;2023-02-15T01:49:26;96880.50;;;-0.91;81.33
70072;BME280;57434;42.794;23.302;2023-02-15T01:50:40;96833.19;;;-1.14;80.85
70072;BME280;57434;42.794;23.302;2023-02-15T01:51:45;96743.97;;;-1.89;80.35
70072;BME280;57434;42.794;23.302;2023-02-15T01:53:46;96873.28;;;-1.20;80.33
70072;BME280;57434;42.794;23.302;2023-02-15T01:54:31;96680.88;;;-2.30;81.07
70072;BME280;57434;42.794;23.302;2023-02-15T01:55:37;96874.53;;;-1.07;81.35
70072;BME280;57434;42.794;23.302;2023-02-15T01:56:41;96874.91;;;-1.09;81.30
70072;BME280;57434;42.794;23.302;2023-02-15T01:57:45;96870.19;;;-1.12;81.37
70072;BME280;57434;42.794;23.302;2023-02-15T01:58:47;96884.66;;;-1.25;81.05
70072;BME280;57434;42.794;23.302;2023-02-15T01:59:54;96852.00;;;-1.23;81.25
70072;BME280;57434;42.794;23.302;2023-02-15T02:00:59;96872.19;;;-0.98;81.46
70072;BME280;57434;42.794;23.302;2023-02-15T02:02:02;96869.06;;;-1.00;81.56
70072;BME280;57434;42.794;23.302;2023-02-15T02:03:05;96877.38;;;-0.82;82.16
70072;BME280;57434;42.794;23.302;2023-02-15T02:04:23;96737.44;;;-1.53;82.22
70072;BME280;57434;42.794;23.302;2023-02-15T02:05:27;96847.47;;;-0.84;82.15
70072;BME280;57434;42.794;23.302;2023-02-15T02:06:30;96877.81;;;-0.70;82.05
70072;BME280;57434;42.794;23.302;2023-02-15T02:07:39;96862.06;;;-0.80;81.61
70072;BME280;57434;42.794;23.302;2023-02-15T02:08:42;96873.47;;;-0.78;81.58
70072;BME280;57434;42.794;23.302;2023-02-15T02:09:44;96878.22;;;-0.68;81.57
70072;BME280;57434;42.794;23.302;2023-02-15T02:10:46;96823.00;;;-1.03;81.57
70072;BME280;57434;42.794;23.302;2023-02-15T02:11:48;96864.38;;;-0.89;81.37
70072;BME280;57434;42.794;23.302;2023-02-15T02:12:54;96860.44;;;-0.88;81.20
70072;BME280;57434;42.794;23.302;2023-02-15T02:13:56;96853.34;;;-0.89;81.37
70072;BME280;57434;42.794;23.302;2023-02-15T02:14:58;96799.69;;;-1.23;81.08
70072;BME280;57434;42.794;23.302;2023-02-15T02:16:07;96874.25;;;-0.81;80.90
70072;BME280;57434;42.794;23.302;2023-02-15T02:21:07;96885.09;;;-1.16;80.80
70072;BME280;57434;42.794;23.302;2023-02-15T02:27:58;96892.56;;;-1.20;80.89
70072;BME280;57434;42.794;23.302;2023-02-15T02:34:12;96884.28;;;-1.86;81.83
70072;BME280;57434;42.794;23.302;2023-02-15T02:35:27;96865.94;;;-2.19;82.18
70072;BME280;57434;42.794;23.302;2023-02-15T02:40:07;96883.03;;;-1.92;81.60
70072;BME280;57434;42.794;23.302;2023-02-15T02:43:00;96895.63;;;-1.91;81.02
70072;BME280;57434;42.794;23.302;2023-02-15T02:44:18;96878.97;;;-2.09;80.82
70072;BME280;57434;42.794;23.302;2023-02-15T02:47:23;96882.09;;;-2.14;80.54
70072;BME280;57434;42.794;23.302;2023-02-15T02:48:26;96745.81;;;-3.03;80.28
70072;BME280;57434;42.794;23.302;2023-02-15T02:49:35;96889.13;;;-2.16;80.34
70072;BME280;57434;42.794;23.302;2023-02-15T02:50:39;96860.69;;;-2.31;80.34
70072;BME280;57434;42.794;23.302;2023-02-15T02:51:41;96693.38;;;-3.31;80.38
70072;BME280;57434;42.794;23.302;2023-02-15T02:52:44;96896.28;;;-2.05;80.16
70072;BME280;57434;42.794;23.302;2023-02-15T02:53:51;96801.19;;;-2.97;79.39
70072;BME280;57434;42.794;23.302;2023-02-15T02:54:55;96873.06;;;-2.51;79.37
70072;BME280;57434;42.794;23.302;2023-02-15T02:56:23;96898.84;;;-2.63;78.74
70072;BME280;57434;42.794;23.302;2023-02-15T02:57:26;96885.47;;;-2.68;78.74
70072;BME280;57434;42.794;23.302;2023-02-15T02:58:38;96884.13;;;-2.81;78.54
70072;BME280;57434;42.794;23.302;2023-02-15T02:59:43;96892.19;;;-2.99;78.62
70072;BME280;57434;42.794;23.302;2023-02-15T03:00:55;96886.91;;;-3.11;78.33
70072;BME280;57434;42.794;23.302;2023-02-15T03:02:20;96912.13;;;-3.02;78.74
70072;BME280;57434;42.794;23.302;2023-02-15T03:03:38;96879.25;;;-3.28;79.17
70072;BME280;57434;42.794;23.302;2023-02-15T03:04:46;96889.97;;;-3.20;79.26
70072;BME280;57434;42.794;23.302;2023-02-15T03:05:54;96844.84;;;-3.52;79.42
70072;BME280;57434;42.794;23.302;2023-02-15T03:07:01;96884.38;;;-3.27;79.47
70072;BME280;57434;42.794;23.302;2023-02-15T03:08:05;96897.56;;;-3.06;79.54
70072;BME280;57434;42.794;23.302;2023-02-15T03:09:14;96740.34;;;-4.03;79.23
70072;BME280;57434;42.794;23.302;2023-02-15T03:10:22;96908.69;;;-2.95;79.36
70072;BME280;57434;42.794;23.302;2023-02-15T03:11:24;96908.38;;;-2.87;79.58
70072;BME280;57434;42.794;23.302;2023-02-15T03:12:34;96910.66;;;-2.96;79.33
70072;BME280;57434;42.794;23.302;2023-02-15T03:13:37;96928.81;;;-2.84;79.58
70072;BME280;57434;42.794;23.302;2023-02-15T03:14:41;96900.25;;;-2.80;79.39
70072;BME280;57434;42.794;23.302;2023-02-15T03:15:46;96901.81;;;-2.79;79.20
70072;BME280;57434;42.794;23.302;2023-02-15T03:16:49;96896.09;;;-3.00;79.04
70072;BME280;57434;42.794;23.302;2023-02-15T03:17:58;96941.91;;;-3.04;79.11
70072;BME280;57434;42.794;23.302;2023-02-15T03:19:15;96913.31;;;-3.03;79.44
70072;BME280;57434;42.794;23.302;2023-02-15T03:20:24;96934.41;;;-3.07;79.18
70072;BME280;57434;42.794;23.302;2023-02-15T03:21:47;96902.22;;;-3.10;79.26
70072;BME280;57434;42.794;23.302;2023-02-15T03:22:52;96886.75;;;-3.25;79.32
70072;BME280;57434;42.794;23.302;2023-02-15T03:24:19;96908.78;;;-3.18;79.27
70072;BME280;57434;42.794;23.302;2023-02-15T03:25:26;96854.59;;;-3.55;79.29
70072;BME280;57434;42.794;23.302;2023-02-15T03:26:32;96879.78;;;-3.46;79.51
70072;BME280;57434;42.794;23.302;2023-02-15T03:27:39;96738.72;;;-4.34;79.54
70072;BME280;57434;42.794;23.302;2023-02-15T03:28:45;96917.16;;;-3.08;80.23
70072;BME280;57434;42.794;23.302;2023-02-15T03:29:53;96921.91;;;-3.05;80.36
70072;BME280;57434;42.794;23.302;2023-02-15T03:30:59;96909.13;;;-3.23;79.94
70072;BME280;57434;42.794;23.302;2023-02-15T03:32:05;96793.06;;;-3.84;80.11
70072;BME280;57434;42.794;23.302;2023-02-15T03:33:09;96931.44;;;-2.95;80.55
70072;BME280;57434;42.794;23.302;2023-02-15T03:34:13;96920.22;;;-3.13;80.15
70072;BME280;57434;42.794;23.302;2023-02-15T03:35:15;96925.63;;;-3.20;79.98
70072;BME280;57434;42.794;23.302;2023-02-15T03:37:58;96886.97;;;-3.38;79.31
70072;BME280;57434;42.794;23.302;2023-02-15T03:40:26;96927.16;;;-3.22;79.40
70072;BME280;57434;42.794;23.302;2023-02-15T03:41:34;96879.09;;;-3.39;79.32
70072;BME280;57434;42.794;23.302;2023-02-15T03:42:39;96906.50;;;-3.13;79.10
70072;BME280;57434;42.794;23.302;2023-02-15T03:43:49;96908.88;;;-3.11;79.15
70072;BME280;57434;42.794;23.302;2023-02-15T03:45:09;96743.59;;;-4.21;79.85
70072;BME280;57434;42.794;23.302;2023-02-15T03:46:25;96905.38;;;-3.08;80.01
70072;BME280;57434;42.794;23.302;2023-02-15T03:47:33;96897.34;;;-3.24;79.86
70072;BME280;57434;42.794;23.302;2023-02-15T03:48:40;96910.72;;;-3.19;79.38
70072;BME280;57434;42.794;23.302;2023-02-15T03:49:57;96907.53;;;-3.24;79.14
70072;BME280;57434;42.794;23.302;2023-02-15T03:51:06;96892.03;;;-3.40;79.46
70072;BME280;57434;42.794;23.302;2023-02-15T03:52:10;96903.09;;;-3.32;79.36
70072;BME280;57434;42.794;23.302;2023-02-15T03:53:15;96902.00;;;-3.28;79.39
70072;BME280;57434;42.794;23.302;2023-02-15T03:54:22;96903.53;;;-3.30;79.11
70072;BME280;57434;42.794;23.302;2023-02-15T03:55:26;96750.84;;;-4.35;78.81
70072;BME280;57434;42.794;23.302;2023-02-15T03:56:29;96799.47;;;-4.02;78.69
70072;BME280;57434;42.794;23.302;2023-02-15T03:57:31;96865.47;;;-3.62;78.49
70072;BME280;57434;42.794;23.302;2023-02-15T03:58:32;96878.06;;;-3.57;78.69
70072;BME280;57434;42.794;23.302;2023-02-15T03:59:34;96883.97;;;-3.55;78.50
70072;BME280;57434;42.794;23.302;2023-02-15T04:00:38;96798.69;;;-4.03;78.39
70072;BME280;57434;42.794;23.302;2023-02-15T04:01:57;96926.81;;;-3.47;78.55
70072;BME280;57434;42.794;23.302;2023-02-15T04:03:26;96950.50;;;-3.62;78.57
70072;BME280;57434;42.794;23.302;2023-02-15T04:04:43;96925.59;;;-3.76;78.61
70072;BME280;57434;42.794;23.302;2023-02-15T04:05:46;96912.81;;;-3.91;78.70
70072;BME280;57434;42.794;23.302;2023-02-15T04:06:48;96921.03;;;-3.91;78.77
70072;BME280;57434;42.794;23.302;2023-02-15T04:07:50;96927.75;;;-4.12;78.81
70072;BME280;57434;42.794;23.302;2023-02-15T04:08:51;96798.41;;;-4.93;78.75
70072;BME280;57434;42.794;23.302;2023-02-15T04:09:53;96895.72;;;-4.30;78.81
70072;BME280;57434;42.794;23.302;2023-02-15T04:10:55;96927.31;;;-4.14;79.07
70072;BME280;57434;42.794;23.302;2023-02-15T04:11:57;96929.50;;;-4.23;78.72
70072;BME280;57434;42.794;23.302;2023-02-15T04:12:58;96925.53;;;-4.25;78.77
70072;BME280;57434;42.794;23.302;2023-02-15T04:14:00;96956.47;;;-4.25;78.88
70072;BME280;57434;42.794;23.302;2023-02-15T04:15:02;96954.91;;;-4.26;78.97
70072;BME280;57434;42.794;23.302;2023-02-15T04:16:04;96919.09;;;-4.59;79.09
70072;BME280;57434;42.794;23.302;2023-02-15T04:17:08;96909.47;;;-4.50;79.39
70072;BME280;57434;42.794;23.302;2023-02-15T04:18:10;96920.13;;;-4.45;79.11
70072;BME280;57434;42.794;23.302;2023-02-15T04:19:12;96892.91;;;-4.57;79.26
70072;BME280;57434;42.794;23.302;2023-02-15T04:20:14;96931.81;;;-4.25;78.97
70072;BME280;57434;42.794;23.302;2023-02-15T04:21:15;96944.63;;;-4.32;78.66
70072;BME280;57434;42.794;23.302;2023-02-15T04:22:17;96776.78;;;-5.21;78.68
70072;BME280;57434;42.794;23.302;2023-02-15T04:23:19;96914.22;;;-4.47;78.59
70072;BME280;57434;42.794;23.302;2023-02-15T04:24:20;96909.97;;;-4.21;78.95
70072;BME280;57434;42.794;23.302;2023-02-15T04:25:22;96913.06;;;-4.23;79.06
70072;BME280;57434;42.794;23.302;2023-02-15T04:26:24;96945.78;;;-3.88;78.72
70072;BME280;57434;42.794;23.302;2023-02-15T04:27:26;96916.84;;;-4.31;78.71
70072;BME280;57434;42.794;23.302;2023-02-15T04:28:27;96878.44;;;-4.34;78.76
70072;BME280;57434;42.794;23.302;2023-02-15T04:29:30;96833.63;;;-4.68;78.41
70072;BME280;57434;42.794;23.302;2023-02-15T04:30:32;96820.72;;;-4.91;78.79
70072;BME280;57434;42.794;23.302;2023-02-15T04:31:33;96947.22;;;-3.94;78.74
70072;BME280;57434;42.794;23.302;2023-02-15T04:32:36;96843.22;;;-4.55;78.69
70072;BME280;57434;42.794;23.302;2023-02-15T04:33:37;96958.31;;;-3.87;78.88
70072;BME280;57434;42.794;23.302;2023-02-15T04:34:39;96916.56;;;-4.03;78.78
70072;BME280;57434;42.794;23.302;2023-02-15T04:35:43;96943.25;;;-3.96;78.68
70072;BME280;57434;42.794;23.302;2023-02-15T04:36:44;96956.81;;;-3.84;78.64
70072;BME280;57434;42.794;23.302;2023-02-15T04:37:46;96968.38;;;-3.94;78.41
70072;BME280;57434;42.794;23.302;2023-02-15T04:38:48;96959.19;;;-3.83;78.50
70072;BME280;57434;42.794;23.302;2023-02-15T04:39:50;96948.34;;;-3.76;78.53
70072;BME280;57434;42.794;23.302;2023-02-15T04:40:52;96918.59;;;-3.96;78.54
70072;BME280;57434;42.794;23.302;2023-02-15T04:41:54;96937.13;;;-3.90;78.26
70072;BME280;57434;42.794;23.302;2023-02-15T04:42:56;96902.22;;;-4.16;78.10
70072;BME280;57434;42.794;23.302;2023-02-15T04:43:57;96942.00;;;-3.80;77.85
70072;BME280;57434;42.794;23.302;2023-02-15T04:44:59;96750.09;;;-5.04;77.72
70072;BME280;57434;42.794;23.302;2023-02-15T04:46:01;96951.38;;;-3.81;77.99
70072;BME280;57434;42.794;23.302;2023-02-15T04:47:03;96948.88;;;-3.89;78.08
70072;BME280;57434;42.794;23.302;2023-02-15T04:48:05;96948.31;;;-3.98;77.48
70072;BME280;57434;42.794;23.302;2023-02-15T04:49:08;96913.19;;;-4.16;77.52
70072;BME280;57434;42.794;23.302;2023-02-15T04:50:10;96929.75;;;-4.09;77.53
70072;BME280;57434;42.794;23.302;2023-02-15T04:51:12;96959.47;;;-3.88;77.63
70072;BME280;57434;42.794;23.302;2023-02-15T04:52:14;96721.69;;;-5.42;77.76
70072;BME280;57434;42.794;23.302;2023-02-15T04:53:16;96941.25;;;-3.99;78.21
70072;BME280;57434;42.794;23.302;2023-02-15T04:54:17;96933.81;;;-3.99;77.71
70072;BME280;57434;42.794;23.302;2023-02-15T04:55:19;96961.44;;;-3.88;77.51
70072;BME280;57434;42.794;23.302;2023-02-15T04:56:21;96966.84;;;-3.92;77.62
70072;BME280;57434;42.794;23.302;2023-02-15T04:57:23;96976.09;;;-4.00;77.63
70072;BME280;57434;42.794;23.302;2023-02-15T04:58:24;96936.84;;;-4.08;77.60
70072;BME280;57434;42.794;23.302;2023-02-15T04:59:26;96924.81;;;-3.99;77.91
70072;BME280;57434;42.794;23.302;2023-02-15T05:00:28;96935.53;;;-3.91;78.35
70072;BME280;57434;42.794;23.302;2023-02-15T05:01:30;96957.28;;;-3.79;78.11
70072;BME280;57434;42.794;23.302;2023-02-15T05:02:32;96961.19;;;-3.80;78.04
70072;BME280;57434;42.794;23.302;2023-02-15T05:03:34;96921.28;;;-4.00;78.21
70072;BME280;57434;42.794;23.302;2023-02-15T05:04:36;96943.09;;;-4.07;77.86
70072;BME280;57434;42.794;23.302;2023-02-15T05:05:37;96949.00;;;-4.05;77.75
70072;BME280;57434;42.794;23.302;2023-02-15T05:06:39;96924.59;;;-4.14;77.36
70072;BME280;57434;42.794;23.302;2023-02-15T05:07:41;96962.88;;;-3.94;78.46
70072;BME280;57434;42.794;23.302;2023-02-15T05:08:43;96995.06;;;-3.91;78.64
70072;BME280;57434;42.794;23.302;2023-02-15T05:09:44;96940.47;;;-4.23;78.51
70072;BME280;57434;42.794;23.302;2023-02-15T05:10:49;96978.00;;;-4.04;78.54
70072;BME280;57434;42.794;23.302;2023-02-15T05:11:51;96966.28;;;-4.24;78.58
70072;BME280;57434;42.794;23.302;2023-02-15T05:12:53;96761.19;;;-5.39;78.87
70072;BME280;57434;42.794;23.302;2023-02-15T05:13:54;96785.34;;;-5.22;78.68
70072;BME280;57434;42.794;23.302;2023-02-15T05:14:56;96958.19;;;-4.17;78.62
70072;BME280;57434;42.794;23.302;2023-02-15T05:15:58;96959.47;;;-4.11;78.67
70072;BME280;57434;42.794;23.302;2023-02-15T05:17:01;96902.09;;;-4.23;78.78
70072;BME280;57434;42.794;23.302;2023-02-15T05:18:03;96982.69;;;-3.82;78.63
70072;BME280;57434;42.794;23.302;2023-02-15T05:19:05;96986.41;;;-3.93;77.73
70072;BME280;57434;42.794;23.302;2023-02-15T05:20:07;96846.22;;;-4.87;77.51
70072;BME280;57434;42.794;23.302;2023-02-15T05:21:09;96935.38;;;-4.01;78.26
70072;BME280;57434;42.794;23.302;2023-02-15T05:22:11;96841.72;;;-4.76;78.21
70072;BME280;57434;42.794;23.302;2023-02-15T05:23:13;96991.16;;;-3.90;78.30
70072;BME280;57434;42.794;23.302;2023-02-15T05:24:15;96964.47;;;-3.93;79.24
70072;BME280;57434;42.794;23.302;2023-02-15T05:25:17;96968.63;;;-3.80;79.71
70072;BME280;57434;42.794;23.302;2023-02-15T05:26:21;96975.69;;;-3.79;79.53
70072;BME280;57434;42.794;23.302;2023-02-15T05:27:23;96989.84;;;-3.77;78.93
70072;BME280;57434;42.794;23.302;2023-02-15T05:28:27;97002.03;;;-3.75;78.49
70072;BME280;57434;42.794;23.302;2023-02-15T05:29:29;96959.66;;;-4.00;78.68
70072;BME280;57434;42.794;23.302;2023-02-15T05:30:30;96994.94;;;-3.76;79.25
70072;BME280;57434;42.794;23.302;2023-02-15T05:31:33;96995.47;;;-3.66;79.04
70072;BME280;57434;42.794;23.302;2023-02-15T05:32:36;97023.81;;;-3.82;78.46
70072;BME280;57434;42.794;23.302;2023-02-15T05:33:38;96997.72;;;-3.72;77.95
70072;BME280;57434;42.794;23.302;2023-02-15T05:34:40;96871.66;;;-4.63;77.78
70072;BME280;57434;42.794;23.302;2023-02-15T05:35:42;96937.25;;;-4.28;77.74
70072;BME280;57434;42.794;23.302;2023-02-15T05:36:44;96994.81;;;-4.05;77.41
70072;BME280;57434;42.794;23.302;2023-02-15T05:37:46;97004.31;;;-3.99;77.29
70072;BME280;57434;42.794;23.302;2023-02-15T05:38:48;96832.06;;;-5.31;76.91
70072;BME280;57434;42.794;23.302;2023-02-15T05:39:49;97012.44;;;-4.26;76.67
70072;BME280;57434;42.794;23.302;2023-02-15T05:40:52;97017.91;;;-4.26;76.93
70072;BME280;57434;42.794;23.302;2023-02-15T05:41:53;97012.00;;;-4.28;77.01
70072;BME280;57434;42.794;23.302;2023-02-15T05:42:56;97007.06;;;-4.42;76.90
70072;BME280;57434;42.794;23.302;2023-02-15T05:43:58;96992.50;;;-4.46;77.34
70072;BME280;57434;42.794;23.302;2023-02-15T05:44:59;97003.66;;;-4.35;77.34
70072;BME280;57434;42.794;23.302;2023-02-15T05:46:02;96978.22;;;-4.55;77.24
70072;BME280;57434;42.794;23.302;2023-02-15T05:47:04;97012.75;;;-4.31;77.24
70072;BME280;57434;42.794;23.302;2023-02-15T05:48:06;97005.50;;;-4.20;77.28
70072;BME280;57434;42.794;23.302;2023-02-15T05:49:08;97020.22;;;-4.28;77.18
70072;BME280;57434;42.794;23.302;2023-02-15T05:50:10;96950.53;;;-4.50;76.90
70072;BME280;57434;42.794;23.302;2023-02-15T05:51:13;97013.16;;;-4.10;76.85
70072;BME280;57434;42.794;23.302;2023-02-15T05:52:14;97003.63;;;-4.16;77.08
70072;BME280;57434;42.794;23.302;2023-02-15T05:53:16;96983.03;;;-4.29;77.13
70072;BME280;57434;42.794;23.302;2023-02-15T05:54:18;97005.63;;;-4.35;77.34
70072;BME280;57434;42.794;23.302;2023-02-15T05:55:20;97010.94;;;-4.00;77.20
70072;BME280;57434;42.794;23.302;2023-02-15T05:56:21;96954.31;;;-4.16;76.88
70072;BME280;57434;42.794;23.302;2023-02-15T05:57:23;97018.09;;;-3.50;76.64
70072;BME280;57434;42.794;23.302;2023-02-15T05:58:28;96877.72;;;-4.31;76.35
70072;BME280;57434;42.794;23.302;2023-02-15T05:59:31;96990.84;;;-3.62;76.57